sensor_id;sensor_type;location;lat;lon;timestamp;temperature;humidity
8420;DHT22;4247;48.550;8.822;2023-03-23T00:02:13;11.70;98.80
8420;DHT22;4247;48.550;8.822;2023-03-23T00:04:40;11.60;98.60
8420;DHT22;4247;48.550;8.822;2023-03-23T00:07:08;11.60;98.90
8420;DHT22;4247;48.550;8.822;2023-03-23T00:09:34;11.60;98.60
8420;DHT22;4247;48.550;8.822;2023-03-23T00:12:07;11.70;98.80
8420;DHT22;4247;48.550;8.822;2023-03-23T00:14:35;11.70;98.20
8420;DHT22;4247;48.550;8.822;2023-03-23T00:17:07;11.70;98.10
8420;DHT22;4247;48.550;8.822;2023-03-23T00:19:35;11.70;97.90
8420;DHT22;4247;48.550;8.822;2023-03-23T00:22:10;11.70;97.90
8420;DHT22;4247;48.550;8.822;2023-03-23T00:24:37;11.70;97.70
8420;DHT22;4247;48.550;8.822;2023-03-23T00:27:03;11.70;97.40
8420;DHT22;4247;48.550;8.822;2023-03-23T00:29:30;11.70;97.50
8420;DHT22;4247;48.550;8.822;2023-03-23T00:31:58;11.70;97.60
8420;DHT22;4247;48.550;8.822;2023-03-23T00:34:25;11.70;97.50
8420;DHT22;4247;48.550;8.822;2023-03-23T00:36:58;11.70;97.60
8420;DHT22;4247;48.550;8.822;2023-03-23T00:39:26;11.70;97.60
8420;DHT22;4247;48.550;8.822;2023-03-23T00:41:53;11.70;97.80
8420;DHT22;4247;48.550;8.822;2023-03-23T00:44:26;11.70;98.00
8420;DHT22;4247;48.550;8.822;2023-03-23T00:46:54;11.70;97.90
8420;DHT22;4247;48.550;8.822;2023-03-23T00:49:24;11.70;98.00
8420;DHT22;4247;48.550;8.822;2023-03-23T00:51:52;11.70;98.00
8420;DHT22;4247;48.550;8.822;2023-03-23T00:54:20;11.70;98.10
8420;DHT22;4247;48.550;8.822;2023-03-23T00:56:47;11.70;98.10
8420;DHT22;4247;48.550;8.822;2023-03-23T00:59:14;11.60;97.90
8420;DHT22;4247;48.550;8.822;2023-03-23T01:01:40;11.60;98.00
8420;DHT22;4247;48.550;8.822;2023-03-23T01:04:08;11.60;97.90
8420;DHT22;4247;48.550;8.822;2023-03-23T01:06:40;11.60;97.90
8420;DHT22;4247;48.550;8.822;2023-03-23T01:09:09;11.60;98.00
8420;DHT22;4247;48.550;8.822;2023-03-23T01:11:37;11.60;98.00
8420;DHT22;4247;48.550;8.822;2023-03-23T01:14:04;11.60;98.10
8420;DHT22;4247;48.550;8.822;2023-03-23T01:16:30;11.60;98.00
8420;DHT22;4247;48.550;8.822;2023-03-23T01:18:57;11.60;98.00
8420;DHT22;4247;48.550;8.822;2023-03-23T01:21:24;11.50;98.00
8420;DHT22;4247;48.550;8.822;2023-03-23T01:23:52;11.50;98.40
8420;DHT22;4247;48.550;8.822;2023-03-23T01:26:22;11.50;98.30
8420;DHT22;4247;48.550;8.822;2023-03-23T01:28:49;11.50;98.50
8420;DHT22;4247;48.550;8.822;2023-03-23T01:31:17;11.50;98.30
8420;DHT22;4247;48.550;8.822;2023-03-23T01:33:44;11.50;98.50
8420;DHT22;4247;48.550;8.822;2023-03-23T01:36:13;11.50;98.40
8420;DHT22;4247;48.550;8.822;2023-03-23T01:38:41;11.50;98.50
8420;DHT22;4247;48.550;8.822;2023-03-23T01:41:10;11.50;98.80
8420;DHT22;4247;48.550;8.822;2023-03-23T01:46:18;11.50;98.70
8420;DHT22;4247;48.550;8.822;2023-03-23T01:48:48;11.50;98.70
8420;DHT22;4247;48.550;8.822;2023-03-23T01:51:19;11.50;98.90
8420;DHT22;4247;48.550;8.822;2023-03-23T01:53:48;11.50;99.10
8420;DHT22;4247;48.550;8.822;2023-03-23T01:56:19;11.50;99.00
8420;DHT22;4247;48.550;8.822;2023-03-23T01:58:51;11.50;99.50
8420;DHT22;4247;48.550;8.822;2023-03-23T02:01:18;11.50;99.40
8420;DHT22;4247;48.550;8.822;2023-03-23T02:03:52;11.50;99.30
8420;DHT22;4247;48.550;8.822;2023-03-23T02:06:20;11.50;99.50
8420;DHT22;4247;48.550;8.822;2023-03-23T02:08:48;11.50;99.20
8420;DHT22;4247;48.550;8.822;2023-03-23T02:11:18;11.40;99.70
8420;DHT22;4247;48.550;8.822;2023-03-23T02:13:46;11.40;99.60
8420;DHT22;4247;48.550;8.822;2023-03-23T02:16:19;11.40;99.70
8420;DHT22;4247;48.550;8.822;2023-03-23T02:22:01;11.40;99.90
8420;DHT22;4247;48.550;8.822;2023-03-23T02:24:52;11.40;99.90
8420;DHT22;4247;48.550;8.822;2023-03-23T02:30:34;11.40;99.90
8420;DHT22;4247;48.550;8.822;2023-03-23T02:33:34;11.30;99.90
8420;DHT22;4247;48.550;8.822;2023-03-23T02:36:08;11.40;99.90
8420;DHT22;4247;48.550;8.822;2023-03-23T02:38:41;11.30;99.90
8420;DHT22;4247;48.550;8.822;2023-03-23T02:41:10;11.30;99.90
8420;DHT22;4247;48.550;8.822;2023-03-23T02:43:41;11.30;99.90
8420;DHT22;4247;48.550;8.822;2023-03-23T02:46:09;11.30;99.90
8420;DHT22;4247;48.550;8.822;2023-03-23T02:48:38;11.20;99.90
8420;DHT22;4247;48.550;8.822;2023-03-23T02:51:08;11.20;99.90
8420;DHT22;4247;48.550;8.822;2023-03-23T02:53:38;11.20;99.90
8420;DHT22;4247;48.550;8.822;2023-03-23T02:56:07;11.10;99.90
8420;DHT22;4247;48.550;8.822;2023-03-23T02:58:35;11.20;99.90
8420;DHT22;4247;48.550;8.822;2023-03-23T03:01:52;11.20;99.90
8420;DHT22;4247;48.550;8.822;2023-03-23T03:04:24;11.20;99.90
8420;DHT22;4247;48.550;8.822;2023-03-23T03:07:01;11.20;99.90
8420;DHT22;4247;48.550;8.822;2023-03-23T03:09:38;11.30;99.90
8420;DHT22;4247;48.550;8.822;2023-03-23T03:12:11;11.30;99.90
8420;DHT22;4247;48.550;8.822;2023-03-23T03:14:43;11.30;99.90
8420;DHT22;4247;48.550;8.822;2023-03-23T03:17:14;11.40;99.90
8420;DHT22;4247;48.550;8.822;2023-03-23T03:19:48;11.40;99.90
8420;DHT22;4247;48.550;8.822;2023-03-23T03:22:17;11.40;99.90
8420;DHT22;4247;48.550;8.822;2023-03-23T03:24:47;11.40;99.90
8420;DHT22;4247;48.550;8.822;2023-03-23T03:27:17;11.40;99.90
8420;DHT22;4247;48.550;8.822;2023-03-23T03:29:46;11.30;99.90
8420;DHT22;4247;48.550;8.822;2023-03-23T03:32:18;11.30;99.90
8420;DHT22;4247;48.550;8.822;2023-03-23T03:34:48;11.30;99.90
8420;DHT22;4247;48.550;8.822;2023-03-23T03:37:16;11.20;99.90
8420;DHT22;4247;48.550;8.822;2023-03-23T03:39:44;11.20;99.90
8420;DHT22;4247;48.550;8.822;2023-03-23T03:42:11;11.20;99.90
8420;DHT22;4247;48.550;8.822;2023-03-23T03:44:37;11.20;99.90
8420;DHT22;4247;48.550;8.822;2023-03-23T03:47:04;11.20;99.90
8420;DHT22;4247;48.550;8.822;2023-03-23T03:49:31;11.20;99.90
8420;DHT22;4247;48.550;8.822;2023-03-23T03:51:59;11.20;99.90
8420;DHT22;4247;48.550;8.822;2023-03-23T03:54:26;11.30;99.90
8420;DHT22;4247;48.550;8.822;2023-03-23T03:56:52;11.30;99.90
8420;DHT22;4247;48.550;8.822;2023-03-23T03:59:23;11.30;99.90
8420;DHT22;4247;48.550;8.822;2023-03-23T04:01:51;11.30;99.90
8420;DHT22;4247;48.550;8.822;2023-03-23T04:04:19;11.30;99.90
8420;DHT22;4247;48.550;8.822;2023-03-23T04:06:47;11.30;99.90
8420;DHT22;4247;48.550;8.822;2023-03-23T04:09:15;11.30;99.90
8420;DHT22;4247;48.550;8.822;2023-03-23T04:11:42;11.30;99.90
8420;DHT22;4247;48.550;8.822;2023-03-23T04:14:09;11.30;99.90
8420;DHT22;4247;48.550;8.822;2023-03-23T04:16:36;11.40;99.90
8420;DHT22;4247;48.550;8.822;2023-03-23T04:19:03;11.30;99.90
8420;DHT22;4247;48.550;8.822;2023-03-23T04:21:30;11.40;99.90
8420;DHT22;4247;48.550;8.822;2023-03-23T04:23:57;11.40;99.90
8420;DHT22;4247;48.550;8.822;2023-03-23T04:26:27;11.40;99.90
8420;DHT22;4247;48.550;8.822;2023-03-23T04:28:54;11.30;99.90
8420;DHT22;4247;48.550;8.822;2023-03-23T04:31:21;11.30;99.90
8420;DHT22;4247;48.550;8.822;2023-03-23T04:33:50;11.30;99.90
8420;DHT22;4247;48.550;8.822;2023-03-23T04:36:18;11.30;99.90
8420;DHT22;4247;48.550;8.822;2023-03-23T04:38:45;11.30;99.90
8420;DHT22;4247;48.550;8.822;2023-03-23T04:41:12;11.30;99.90
8420;DHT22;4247;48.550;8.822;2023-03-23T04:43:40;11.30;99.90
8420;DHT22;4247;48.550;8.822;2023-03-23T04:46:08;11.30;99.90
8420;DHT22;4247;48.550;8.822;2023-03-23T04:48:35;11.30;99.90
8420;DHT22;4247;48.550;8.822;2023-03-23T04:51:04;11.20;99.90
8420;DHT22;4247;48.550;8.822;2023-03-23T04:53:31;11.30;99.90
8420;DHT22;4247;48.550;8.822;2023-03-23T04:55:58;11.30;99.90
8420;DHT22;4247;48.550;8.822;2023-03-23T04:58:26;11.30;99.90
8420;DHT22;4247;48.550;8.822;2023-03-23T05:00:55;11.30;99.90
8420;DHT22;4247;48.550;8.822;2023-03-23T05:03:21;11.30;99.90
8420;DHT22;4247;48.550;8.822;2023-03-23T05:05:48;11.40;99.90
8420;DHT22;4247;48.550;8.822;2023-03-23T05:08:17;11.40;99.90
8420;DHT22;4247;48.550;8.822;2023-03-23T05:10:50;11.40;99.90
8420;DHT22;4247;48.550;8.822;2023-03-23T05:13:17;11.50;99.90
8420;DHT22;4247;48.550;8.822;2023-03-23T05:15:44;11.50;99.90
8420;DHT22;4247;48.550;8.822;2023-03-23T05:18:12;11.50;99.90
8420;DHT22;4247;48.550;8.822;2023-03-23T05:20:38;11.50;99.90
8420;DHT22;4247;48.550;8.822;2023-03-23T05:23:07;11.50;99.90
8420;DHT22;4247;48.550;8.822;2023-03-23T05:25:34;11.60;99.90
8420;DHT22;4247;48.550;8.822;2023-03-23T05:28:05;11.60;99.90
8420;DHT22;4247;48.550;8.822;2023-03-23T05:30:32;11.60;99.90
8420;DHT22;4247;48.550;8.822;2023-03-23T05:32:59;11.60;99.90
8420;DHT22;4247;48.550;8.822;2023-03-23T05:35:27;11.60;99.90
8420;DHT22;4247;48.550;8.822;2023-03-23T05:37:53;11.70;99.90
8420;DHT22;4247;48.550;8.822;2023-03-23T05:40:21;11.70;99.90
8420;DHT22;4247;48.550;8.822;2023-03-23T05:42:49;11.70;99.90
8420;DHT22;4247;48.550;8.822;2023-03-23T05:45:16;11.70;99.90
8420;DHT22;4247;48.550;8.822;2023-03-23T05:47:42;11.70;99.90
8420;DHT22;4247;48.550;8.822;2023-03-23T05:50:10;11.80;99.90
8420;DHT22;4247;48.550;8.822;2023-03-23T05:52:39;11.80;99.90
8420;DHT22;4247;48.550;8.822;2023-03-23T05:55:07;11.80;99.90
8420;DHT22;4247;48.550;8.822;2023-03-23T05:57:34;11.80;99.90
8420;DHT22;4247;48.550;8.822;2023-03-23T06:00:02;11.90;99.90
8420;DHT22;4247;48.550;8.822;2023-03-23T06:02:38;11.90;99.90
8420;DHT22;4247;48.550;8.822;2023-03-23T06:05:10;12.00;99.90
8420;DHT22;4247;48.550;8.822;2023-03-23T06:07:38;12.00;99.90
8420;DHT22;4247;48.550;8.822;2023-03-23T06:10:06;12.00;99.90
8420;DHT22;4247;48.550;8.822;2023-03-23T06:12:34;12.00;99.90
8420;DHT22;4247;48.550;8.822;2023-03-23T06:15:01;12.10;99.90
8420;DHT22;4247;48.550;8.822;2023-03-23T06:17:29;12.10;99.90
8420;DHT22;4247;48.550;8.822;2023-03-23T06:19:55;12.20;99.90
8420;DHT22;4247;48.550;8.822;2023-03-23T06:22:23;12.10;99.90
8420;DHT22;4247;48.550;8.822;2023-03-23T06:24:51;12.20;99.90
8420;DHT22;4247;48.550;8.822;2023-03-23T06:27:22;12.20;99.90
8420;DHT22;4247;48.550;8.822;2023-03-23T06:34:42;12.20;99.90
8420;DHT22;4247;48.550;8.822;2023-03-23T06:37:10;12.20;99.90
8420;DHT22;4247;48.550;8.822;2023-03-23T06:39:37;12.30;99.90
8420;DHT22;4247;48.550;8.822;2023-03-23T06:42:09;12.30;99.90
8420;DHT22;4247;48.550;8.822;2023-03-23T06:44:35;12.30;99.90
8420;DHT22;4247;48.550;8.822;2023-03-23T06:47:03;12.40;99.90
8420;DHT22;4247;48.550;8.822;2023-03-23T06:49:30;12.40;99.90
8420;DHT22;4247;48.550;8.822;2023-03-23T06:51:57;12.40;99.90
8420;DHT22;4247;48.550;8.822;2023-03-23T06:54:25;12.50;99.90
8420;DHT22;4247;48.550;8.822;2023-03-23T06:56:52;12.50;99.90
8420;DHT22;4247;48.550;8.822;2023-03-23T06:59:20;12.50;99.90
8420;DHT22;4247;48.550;8.822;2023-03-23T07:01:47;12.60;99.90
8420;DHT22;4247;48.550;8.822;2023-03-23T07:04:13;12.60;99.90
8420;DHT22;4247;48.550;8.822;2023-03-23T07:06:41;12.60;99.90
8420;DHT22;4247;48.550;8.822;2023-03-23T07:09:08;12.60;99.90
8420;DHT22;4247;48.550;8.822;2023-03-23T07:11:34;12.60;99.90
8420;DHT22;4247;48.550;8.822;2023-03-23T07:14:01;12.70;99.90
8420;DHT22;4247;48.550;8.822;2023-03-23T07:16:29;12.70;99.90
8420;DHT22;4247;48.550;8.822;2023-03-23T07:18:56;12.70;99.90
8420;DHT22;4247;48.550;8.822;2023-03-23T07:21:23;12.80;99.90
8420;DHT22;4247;48.550;8.822;2023-03-23T07:23:49;12.80;99.90
8420;DHT22;4247;48.550;8.822;2023-03-23T07:26:16;12.80;99.90
8420;DHT22;4247;48.550;8.822;2023-03-23T07:28:43;12.80;99.90
8420;DHT22;4247;48.550;8.822;2023-03-23T07:31:11;12.90;99.90
8420;DHT22;4247;48.550;8.822;2023-03-23T07:33:39;12.90;99.90
8420;DHT22;4247;48.550;8.822;2023-03-23T07:36:06;12.90;99.90
8420;DHT22;4247;48.550;8.822;2023-03-23T07:38:33;13.00;99.90
8420;DHT22;4247;48.550;8.822;2023-03-23T07:41:01;13.00;99.90
8420;DHT22;4247;48.550;8.822;2023-03-23T07:43:28;13.10;99.90
8420;DHT22;4247;48.550;8.822;2023-03-23T07:45:55;13.10;99.90
8420;DHT22;4247;48.550;8.822;2023-03-23T07:48:21;13.20;99.90
8420;DHT22;4247;48.550;8.822;2023-03-23T07:50:49;13.30;99.90
8420;DHT22;4247;48.550;8.822;2023-03-23T07:53:16;13.40;99.90
8420;DHT22;4247;48.550;8.822;2023-03-23T07:55:43;13.50;99.90
8420;DHT22;4247;48.550;8.822;2023-03-23T07:58:09;13.50;99.90
8420;DHT22;4247;48.550;8.822;2023-03-23T08:00:42;13.60;99.90
8420;DHT22;4247;48.550;8.822;2023-03-23T08:03:09;13.70;99.90
8420;DHT22;4247;48.550;8.822;2023-03-23T08:05:36;13.70;99.90
8420;DHT22;4247;48.550;8.822;2023-03-23T08:08:04;13.80;99.90
8420;DHT22;4247;48.550;8.822;2023-03-23T08:10:32;13.90;99.90
8420;DHT22;4247;48.550;8.822;2023-03-23T08:12:59;13.90;99.90
8420;DHT22;4247;48.550;8.822;2023-03-23T08:15:26;13.90;99.90
8420;DHT22;4247;48.550;8.822;2023-03-23T08:17:52;13.90;99.90
8420;DHT22;4247;48.550;8.822;2023-03-23T08:20:19;14.00;99.90
8420;DHT22;4247;48.550;8.822;2023-03-23T08:22:50;14.10;99.90
8420;DHT22;4247;48.550;8.822;2023-03-23T08:25:20;14.10;99.90
8420;DHT22;4247;48.550;8.822;2023-03-23T08:27:47;14.20;99.90
8420;DHT22;4247;48.550;8.822;2023-03-23T08:30:17;14.30;99.90
8420;DHT22;4247;48.550;8.822;2023-03-23T08:32:44;14.30;99.90
8420;DHT22;4247;48.550;8.822;2023-03-23T08:35:13;14.30;99.90
8420;DHT22;4247;48.550;8.822;2023-03-23T08:37:41;14.40;99.90
8420;DHT22;4247;48.550;8.822;2023-03-23T08:40:09;14.40;99.90
8420;DHT22;4247;48.550;8.822;2023-03-23T08:42:38;14.40;99.90
8420;DHT22;4247;48.550;8.822;2023-03-23T08:45:06;14.50;99.90
8420;DHT22;4247;48.550;8.822;2023-03-23T08:47:34;14.40;99.90
8420;DHT22;4247;48.550;8.822;2023-03-23T08:50:01;14.40;99.90
8420;DHT22;4247;48.550;8.822;2023-03-23T08:52:29;14.50;99.90
8420;DHT22;4247;48.550;8.822;2023-03-23T08:54:56;14.60;99.90
8420;DHT22;4247;48.550;8.822;2023-03-23T08:57:23;14.60;99.90
8420;DHT22;4247;48.550;8.822;2023-03-23T08:59:51;14.60;99.90
8420;DHT22;4247;48.550;8.822;2023-03-23T09:02:19;14.70;99.90
8420;DHT22;4247;48.550;8.822;2023-03-23T09:04:46;14.70;99.90
8420;DHT22;4247;48.550;8.822;2023-03-23T09:07:14;14.70;99.90
8420;DHT22;4247;48.550;8.822;2023-03-23T09:09:41;14.70;99.90
8420;DHT22;4247;48.550;8.822;2023-03-23T09:12:08;14.70;99.90
8420;DHT22;4247;48.550;8.822;2023-03-23T09:14:35;14.80;99.90
8420;DHT22;4247;48.550;8.822;2023-03-23T09:17:04;14.90;99.90
8420;DHT22;4247;48.550;8.822;2023-03-23T09:19:33;15.00;99.90
8420;DHT22;4247;48.550;8.822;2023-03-23T09:22:00;15.00;99.90
8420;DHT22;4247;48.550;8.822;2023-03-23T09:24:27;15.00;99.90
8420;DHT22;4247;48.550;8.822;2023-03-23T09:26:54;15.10;99.90
8420;DHT22;4247;48.550;8.822;2023-03-23T09:29:20;15.20;99.90
8420;DHT22;4247;48.550;8.822;2023-03-23T09:31:47;15.10;99.90
8420;DHT22;4247;48.550;8.822;2023-03-23T09:34:15;15.20;99.90
8420;DHT22;4247;48.550;8.822;2023-03-23T09:36:42;15.20;99.90
8420;DHT22;4247;48.550;8.822;2023-03-23T09:39:09;15.20;99.90
8420;DHT22;4247;48.550;8.822;2023-03-23T09:42:03;15.20;99.90
8420;DHT22;4247;48.550;8.822;2023-03-23T09:44:41;15.30;99.90
8420;DHT22;4247;48.550;8.822;2023-03-23T09:47:14;15.20;99.90
8420;DHT22;4247;48.550;8.822;2023-03-23T09:49:51;15.30;99.90
8420;DHT22;4247;48.550;8.822;2023-03-23T09:52:20;15.30;99.90
8420;DHT22;4247;48.550;8.822;2023-03-23T09:54:49;15.40;99.90
8420;DHT22;4247;48.550;8.822;2023-03-23T09:57:22;15.40;99.90
8420;DHT22;4247;48.550;8.822;2023-03-23T10:00:03;15.50;99.90
8420;DHT22;4247;48.550;8.822;2023-03-23T10:02:38;15.60;99.90
8420;DHT22;4247;48.550;8.822;2023-03-23T10:05:23;15.70;99.90
8420;DHT22;4247;48.550;8.822;2023-03-23T10:15:34;16.20;99.90
8420;DHT22;4247;48.550;8.822;2023-03-23T10:18:04;16.20;99.70
8420;DHT22;4247;48.550;8.822;2023-03-23T10:20:43;16.20;99.70
8420;DHT22;4247;48.550;8.822;2023-03-23T10:23:14;16.10;99.30
8420;DHT22;4247;48.550;8.822;2023-03-23T10:25:45;16.10;99.40
8420;DHT22;4247;48.550;8.822;2023-03-23T10:28:17;16.10;99.80
8420;DHT22;4247;48.550;8.822;2023-03-23T10:30:47;16.00;99.90
8420;DHT22;4247;48.550;8.822;2023-03-23T10:33:18;16.10;99.90
8420;DHT22;4247;48.550;8.822;2023-03-23T10:35:50;16.20;99.90
8420;DHT22;4247;48.550;8.822;2023-03-23T10:38:23;16.20;99.90
8420;DHT22;4247;48.550;8.822;2023-03-23T10:40:54;16.20;99.90
8420;DHT22;4247;48.550;8.822;2023-03-23T10:43:23;16.40;99.80
8420;DHT22;4247;48.550;8.822;2023-03-23T10:45:55;16.40;99.80
8420;DHT22;4247;48.550;8.822;2023-03-23T10:48:27;16.60;99.90
8420;DHT22;4247;48.550;8.822;2023-03-23T10:51:00;16.50;99.20
8420;DHT22;4247;48.550;8.822;2023-03-23T10:53:31;16.70;99.40
8420;DHT22;4247;48.550;8.822;2023-03-23T10:55:58;16.70;99.30
8420;DHT22;4247;48.550;8.822;2023-03-23T10:58:27;16.70;98.50
8420;DHT22;4247;48.550;8.822;2023-03-23T11:00:56;16.90;98.70
8420;DHT22;4247;48.550;8.822;2023-03-23T11:03:33;17.00;99.20
8420;DHT22;4247;48.550;8.822;2023-03-23T11:06:04;17.10;98.90
8420;DHT22;4247;48.550;8.822;2023-03-23T11:08:34;17.20;99.20
8420;DHT22;4247;48.550;8.822;2023-03-23T11:11:10;17.20;98.30
8420;DHT22;4247;48.550;8.822;2023-03-23T11:13:40;17.10;99.10
8420;DHT22;4247;48.550;8.822;2023-03-23T11:16:09;17.10;99.60
8420;DHT22;4247;48.550;8.822;2023-03-23T11:18:38;17.10;99.80
8420;DHT22;4247;48.550;8.822;2023-03-23T11:21:07;17.10;99.80
8420;DHT22;4247;48.550;8.822;2023-03-23T11:23:37;17.20;99.90
8420;DHT22;4247;48.550;8.822;2023-03-23T11:26:11;17.20;99.90
8420;DHT22;4247;48.550;8.822;2023-03-23T11:28:43;17.20;99.60
8420;DHT22;4247;48.550;8.822;2023-03-23T11:31:11;17.10;99.10
8420;DHT22;4247;48.550;8.822;2023-03-23T11:33:46;17.20;99.50
8420;DHT22;4247;48.550;8.822;2023-03-23T11:36:15;17.20;98.60
8420;DHT22;4247;48.550;8.822;2023-03-23T11:38:43;17.20;98.20
8420;DHT22;4247;48.550;8.822;2023-03-23T11:41:11;17.20;97.90
8420;DHT22;4247;48.550;8.822;2023-03-23T11:43:40;17.20;97.40
8420;DHT22;4247;48.550;8.822;2023-03-23T11:46:18;17.10;97.00
8420;DHT22;4247;48.550;8.822;2023-03-23T11:48:51;17.00;97.10
8420;DHT22;4247;48.550;8.822;2023-03-23T11:51:26;16.90;96.60
8420;DHT22;4247;48.550;8.822;2023-03-23T11:54:00;16.90;96.80
8420;DHT22;4247;48.550;8.822;2023-03-23T11:56:30;17.00;97.00
8420;DHT22;4247;48.550;8.822;2023-03-23T11:58:59;17.00;96.70
8420;DHT22;4247;48.550;8.822;2023-03-23T12:01:38;16.90;96.40
8420;DHT22;4247;48.550;8.822;2023-03-23T12:04:33;16.80;96.70
8420;DHT22;4247;48.550;8.822;2023-03-23T12:07:13;16.90;96.70
8420;DHT22;4247;48.550;8.822;2023-03-23T12:09:46;16.90;96.60
8420;DHT22;4247;48.550;8.822;2023-03-23T12:12:18;16.90;96.40
8420;DHT22;4247;48.550;8.822;2023-03-23T12:14:53;16.70;96.20
8420;DHT22;4247;48.550;8.822;2023-03-23T12:17:33;16.70;96.10
8420;DHT22;4247;48.550;8.822;2023-03-23T12:20:12;16.70;96.20
8420;DHT22;4247;48.550;8.822;2023-03-23T12:22:51;16.70;95.80
8420;DHT22;4247;48.550;8.822;2023-03-23T12:28:30;16.70;96.10
8420;DHT22;4247;48.550;8.822;2023-03-23T12:31:04;16.80;96.70
8420;DHT22;4247;48.550;8.822;2023-03-23T12:33:41;16.80;96.20
8420;DHT22;4247;48.550;8.822;2023-03-23T12:36:29;16.70;95.80
8420;DHT22;4247;48.550;8.822;2023-03-23T12:39:31;16.80;95.70
8420;DHT22;4247;48.550;8.822;2023-03-23T12:42:06;16.90;95.80
8420;DHT22;4247;48.550;8.822;2023-03-23T12:44:39;16.90;96.10
8420;DHT22;4247;48.550;8.822;2023-03-23T12:47:21;16.90;96.00
8420;DHT22;4247;48.550;8.822;2023-03-23T12:49:54;17.00;96.30
8420;DHT22;4247;48.550;8.822;2023-03-23T12:52:25;17.10;96.10
8420;DHT22;4247;48.550;8.822;2023-03-23T12:54:59;17.20;95.60
8420;DHT22;4247;48.550;8.822;2023-03-23T12:57:33;17.30;95.80
8420;DHT22;4247;48.550;8.822;2023-03-23T13:00:06;17.40;95.30
8420;DHT22;4247;48.550;8.822;2023-03-23T13:02:42;17.40;95.20
8420;DHT22;4247;48.550;8.822;2023-03-23T13:05:24;17.50;95.50
8420;DHT22;4247;48.550;8.822;2023-03-23T13:07:56;17.50;95.70
8420;DHT22;4247;48.550;8.822;2023-03-23T13:10:28;17.60;94.90
8420;DHT22;4247;48.550;8.822;2023-03-23T13:12:56;17.60;94.80
8420;DHT22;4247;48.550;8.822;2023-03-23T13:15:32;17.60;94.60
8420;DHT22;4247;48.550;8.822;2023-03-23T13:18:07;17.60;94.60
8420;DHT22;4247;48.550;8.822;2023-03-23T13:20:42;17.70;94.50
8420;DHT22;4247;48.550;8.822;2023-03-23T13:23:14;17.70;94.30
8420;DHT22;4247;48.550;8.822;2023-03-23T13:25:51;17.60;94.30
8420;DHT22;4247;48.550;8.822;2023-03-23T13:28:19;17.70;94.30
8420;DHT22;4247;48.550;8.822;2023-03-23T13:30:59;17.70;94.40
8420;DHT22;4247;48.550;8.822;2023-03-23T13:33:30;17.70;94.50
8420;DHT22;4247;48.550;8.822;2023-03-23T13:36:07;17.70;94.40
8420;DHT22;4247;48.550;8.822;2023-03-23T13:38:34;17.70;94.70
8420;DHT22;4247;48.550;8.822;2023-03-23T13:41:08;17.80;94.70
8420;DHT22;4247;48.550;8.822;2023-03-23T13:43:37;17.80;94.50
8420;DHT22;4247;48.550;8.822;2023-03-23T13:46:11;17.80;93.70
8420;DHT22;4247;48.550;8.822;2023-03-23T13:48:43;17.70;93.30
8420;DHT22;4247;48.550;8.822;2023-03-23T13:51:31;17.70;93.50
8420;DHT22;4247;48.550;8.822;2023-03-23T13:54:12;17.60;93.60
8420;DHT22;4247;48.550;8.822;2023-03-23T13:56:43;17.70;94.10
8420;DHT22;4247;48.550;8.822;2023-03-23T13:59:16;17.70;93.90
8420;DHT22;4247;48.550;8.822;2023-03-23T14:01:43;17.70;94.20
8420;DHT22;4247;48.550;8.822;2023-03-23T14:04:13;17.80;94.40
8420;DHT22;4247;48.550;8.822;2023-03-23T14:06:41;17.80;94.20
8420;DHT22;4247;48.550;8.822;2023-03-23T14:09:13;17.70;93.50
8420;DHT22;4247;48.550;8.822;2023-03-23T14:11:49;17.70;93.50
8420;DHT22;4247;48.550;8.822;2023-03-23T14:14:23;17.70;93.60
8420;DHT22;4247;48.550;8.822;2023-03-23T14:16:51;17.80;93.80
8420;DHT22;4247;48.550;8.822;2023-03-23T14:19:22;17.70;93.30
8420;DHT22;4247;48.550;8.822;2023-03-23T14:21:52;17.60;92.90
8420;DHT22;4247;48.550;8.822;2023-03-23T14:24:21;17.50;92.60
8420;DHT22;4247;48.550;8.822;2023-03-23T14:26:51;17.50;92.80
8420;DHT22;4247;48.550;8.822;2023-03-23T14:29:20;17.40;92.60
8420;DHT22;4247;48.550;8.822;2023-03-23T14:31:52;17.40;92.50
8420;DHT22;4247;48.550;8.822;2023-03-23T14:34:21;17.20;91.90
8420;DHT22;4247;48.550;8.822;2023-03-23T14:36:50;17.20;92.50
8420;DHT22;4247;48.550;8.822;2023-03-23T14:39:22;17.20;92.50
8420;DHT22;4247;48.550;8.822;2023-03-23T14:41:53;17.10;92.60
8420;DHT22;4247;48.550;8.822;2023-03-23T14:44:23;17.10;92.40
8420;DHT22;4247;48.550;8.822;2023-03-23T14:46:50;17.00;91.60
8420;DHT22;4247;48.550;8.822;2023-03-23T14:49:21;17.10;92.30
8420;DHT22;4247;48.550;8.822;2023-03-23T14:51:52;17.10;92.20
8420;DHT22;4247;48.550;8.822;2023-03-23T14:54:22;17.00;92.50
8420;DHT22;4247;48.550;8.822;2023-03-23T14:56:51;17.00;92.50
8420;DHT22;4247;48.550;8.822;2023-03-23T14:59:17;17.00;92.50
8420;DHT22;4247;48.550;8.822;2023-03-23T15:01:46;17.10;92.90
8420;DHT22;4247;48.550;8.822;2023-03-23T15:04:17;17.00;92.90
8420;DHT22;4247;48.550;8.822;2023-03-23T15:06:48;17.10;92.80
8420;DHT22;4247;48.550;8.822;2023-03-23T15:09:20;17.00;92.00
8420;DHT22;4247;48.550;8.822;2023-03-23T15:11:54;16.90;92.10
8420;DHT22;4247;48.550;8.822;2023-03-23T15:14:24;16.80;92.10
8420;DHT22;4247;48.550;8.822;2023-03-23T15:16:54;16.80;92.30
8420;DHT22;4247;48.550;8.822;2023-03-23T15:19:24;16.70;92.20
8420;DHT22;4247;48.550;8.822;2023-03-23T15:21:53;16.60;92.30
8420;DHT22;4247;48.550;8.822;2023-03-23T15:24:25;16.60;92.50
8420;DHT22;4247;48.550;8.822;2023-03-23T15:27:04;16.60;92.40
8420;DHT22;4247;48.550;8.822;2023-03-23T15:29:46;16.50;92.70
8420;DHT22;4247;48.550;8.822;2023-03-23T15:32:19;16.50;92.90
8420;DHT22;4247;48.550;8.822;2023-03-23T15:34:46;16.50;92.80
8420;DHT22;4247;48.550;8.822;2023-03-23T15:37:18;16.40;92.70
8420;DHT22;4247;48.550;8.822;2023-03-23T15:39:46;16.30;92.90
8420;DHT22;4247;48.550;8.822;2023-03-23T15:42:26;16.30;92.60
8420;DHT22;4247;48.550;8.822;2023-03-23T15:45:02;16.20;92.80
8420;DHT22;4247;48.550;8.822;2023-03-23T15:47:37;16.20;93.10
8420;DHT22;4247;48.550;8.822;2023-03-23T15:50:13;16.20;93.10
8420;DHT22;4247;48.550;8.822;2023-03-23T15:52:40;16.10;92.90
8420;DHT22;4247;48.550;8.822;2023-03-23T15:55:20;16.20;93.20
8420;DHT22;4247;48.550;8.822;2023-03-23T15:57:49;16.20;93.50
8420;DHT22;4247;48.550;8.822;2023-03-23T16:00:17;16.20;93.60
8420;DHT22;4247;48.550;8.822;2023-03-23T16:02:45;16.30;93.90
8420;DHT22;4247;48.550;8.822;2023-03-23T16:05:13;16.30;93.90
8420;DHT22;4247;48.550;8.822;2023-03-23T16:07:40;16.30;93.90
8420;DHT22;4247;48.550;8.822;2023-03-23T16:10:14;16.30;94.60
8420;DHT22;4247;48.550;8.822;2023-03-23T16:12:41;16.30;94.40
8420;DHT22;4247;48.550;8.822;2023-03-23T16:15:09;16.20;94.00
8420;DHT22;4247;48.550;8.822;2023-03-23T16:17:36;16.20;94.20
8420;DHT22;4247;48.550;8.822;2023-03-23T16:20:10;16.20;94.60
8420;DHT22;4247;48.550;8.822;2023-03-23T16:22:38;16.10;94.70
8420;DHT22;4247;48.550;8.822;2023-03-23T16:25:05;16.10;94.90
8420;DHT22;4247;48.550;8.822;2023-03-23T16:27:32;16.10;94.90
8420;DHT22;4247;48.550;8.822;2023-03-23T16:29:59;16.00;95.20
8420;DHT22;4247;48.550;8.822;2023-03-23T16:32:29;16.00;94.80
8420;DHT22;4247;48.550;8.822;2023-03-23T16:34:56;15.90;94.90
8420;DHT22;4247;48.550;8.822;2023-03-23T16:37:22;15.90;95.00
8420;DHT22;4247;48.550;8.822;2023-03-23T16:39:49;15.90;95.30
8420;DHT22;4247;48.550;8.822;2023-03-23T16:42:16;15.90;95.40
8420;DHT22;4247;48.550;8.822;2023-03-23T16:44:42;15.90;95.70
8420;DHT22;4247;48.550;8.822;2023-03-23T16:47:10;15.90;95.90